sensor_id;sensor_type;location;lat;lon;timestamp;pressure;altitude;pressure_sealevel;temperature;humidity
11343;BME280;5726;42.160;24.746;2023-02-03T00:00:55;99795.75;;;6.75;71.91
11343;BME280;5726;42.160;24.746;2023-02-03T00:03:21;99802.25;;;6.53;73.17
11343;BME280;5726;42.160;24.746;2023-02-03T00:05:46;99783.69;;;6.63;73.17
11343;BME280;5726;42.160;24.746;2023-02-03T00:08:13;99786.81;;;6.55;73.64
11343;BME280;5726;42.160;24.746;2023-02-03T00:10:39;99780.91;;;6.48;74.59
11343;BME280;5726;42.160;24.746;2023-02-03T00:13:05;99786.91;;;6.70;73.37
11343;BME280;5726;42.160;24.746;2023-02-03T00:15:30;99778.06;;;6.60;74.19
11343;BME280;5726;42.160;24.746;2023-02-03T00:17:56;99783.34;;;6.55;74.36
11343;BME280;5726;42.160;24.746;2023-02-03T00:20:21;99799.06;;;6.51;73.78
11343;BME280;5726;42.160;24.746;2023-02-03T00:22:47;99802.84;;;6.60;72.50
11343;BME280;5726;42.160;24.746;2023-02-03T00:25:13;99793.78;;;6.61;72.42
11343;BME280;5726;42.160;24.746;2023-02-03T00:27:38;99790.44;;;6.80;70.92
11343;BME280;5726;42.160;24.746;2023-02-03T00:30:04;99809.03;;;6.70;71.16
11343;BME280;5726;42.160;24.746;2023-02-03T00:32:30;99795.34;;;6.98;69.40
11343;BME280;5726;42.160;24.746;2023-02-03T00:34:55;99800.63;;;6.88;69.43
11343;BME280;5726;42.160;24.746;2023-02-03T00:37:20;99801.53;;;7.04;68.34
11343;BME280;5726;42.160;24.746;2023-02-03T00:39:47;99800.47;;;7.05;68.33
11343;BME280;5726;42.160;24.746;2023-02-03T00:42:13;99805.28;;;7.08;68.41
11343;BME280;5726;42.160;24.746;2023-02-03T00:44:38;99811.66;;;7.07;69.09
11343;BME280;5726;42.160;24.746;2023-02-03T00:47:04;99801.97;;;6.91;70.38
11343;BME280;5726;42.160;24.746;2023-02-03T00:49:29;99805.72;;;6.90;70.63
11343;BME280;5726;42.160;24.746;2023-02-03T00:51:55;99813.63;;;6.80;71.43
11343;BME280;5726;42.160;24.746;2023-02-03T00:54:20;99834.44;;;6.83;71.51
11343;BME280;5726;42.160;24.746;2023-02-03T00:56:46;99828.09;;;6.89;71.20
11343;BME280;5726;42.160;24.746;2023-02-03T00:59:11;99818.50;;;6.57;72.72
11343;BME280;5726;42.160;24.746;2023-02-03T01:01:37;99833.38;;;6.84;71.77
11343;BME280;5726;42.160;24.746;2023-02-03T01:04:02;99846.72;;;6.84;72.10
11343;BME280;5726;42.160;24.746;2023-02-03T01:06:28;99845.38;;;6.86;72.41
11343;BME280;5726;42.160;24.746;2023-02-03T01:08:53;99846.84;;;7.04;72.24
11343;BME280;5726;42.160;24.746;2023-02-03T01:11:24;99847.59;;;6.94;71.91
11343;BME280;5726;42.160;24.746;2023-02-03T01:13:50;99835.13;;;7.05;70.96
11343;BME280;5726;42.160;24.746;2023-02-03T01:16:18;99837.72;;;6.95;71.62
11343;BME280;5726;42.160;24.746;2023-02-03T01:18:45;99830.97;;;6.82;72.27
11343;BME280;5726;42.160;24.746;2023-02-03T01:21:14;99828.75;;;6.69;72.97
11343;BME280;5726;42.160;24.746;2023-02-03T01:23:40;99816.78;;;6.72;72.64
11343;BME280;5726;42.160;24.746;2023-02-03T01:26:09;99827.13;;;6.68;72.60
11343;BME280;5726;42.160;24.746;2023-02-03T01:28:36;99833.78;;;6.66;72.22
11343;BME280;5726;42.160;24.746;2023-02-03T01:31:19;99831.75;;;6.78;71.11
11343;BME280;5726;42.160;24.746;2023-02-03T01:33:45;99844.34;;;6.56;71.46
11343;BME280;5726;42.160;24.746;2023-02-03T01:36:16;99846.75;;;6.53;72.21
11343;BME280;5726;42.160;24.746;2023-02-03T01:38:42;99837.09;;;6.83;70.79
11343;BME280;5726;42.160;24.746;2023-02-03T01:41:11;99848.25;;;6.75;70.71
11343;BME280;5726;42.160;24.746;2023-02-03T01:43:40;99853.31;;;6.76;70.83
11343;BME280;5726;42.160;24.746;2023-02-03T01:48:41;99847.75;;;6.83;71.03
11343;BME280;5726;42.160;24.746;2023-02-03T01:51:06;99850.06;;;6.69;71.94
11343;BME280;5726;42.160;24.746;2023-02-03T01:53:32;99844.31;;;6.82;71.07
11343;BME280;5726;42.160;24.746;2023-02-03T01:55:58;99830.22;;;6.87;70.30
11343;BME280;5726;42.160;24.746;2023-02-03T01:58:30;99844.06;;;6.84;70.65
11343;BME280;5726;42.160;24.746;2023-02-03T02:00:59;99855.91;;;6.66;71.41
11343;BME280;5726;42.160;24.746;2023-02-03T02:03:46;99853.25;;;6.71;71.93
11343;BME280;5726;42.160;24.746;2023-02-03T02:06:14;99862.75;;;6.58;72.79
11343;BME280;5726;42.160;24.746;2023-02-03T02:08:41;99876.59;;;6.60;73.33
11343;BME280;5726;42.160;24.746;2023-02-03T02:11:08;99870.06;;;6.72;72.99
11343;BME280;5726;42.160;24.746;2023-02-03T02:13:35;99872.25;;;6.80;73.29
11343;BME280;5726;42.160;24.746;2023-02-03T02:26:58;99882.31;;;6.73;74.80
11343;BME280;5726;42.160;24.746;2023-02-03T02:29:42;99875.81;;;6.59;75.66
11343;BME280;5726;42.160;24.746;2023-02-03T02:37:51;99892.78;;;6.79;75.98
11343;BME280;5726;42.160;24.746;2023-02-03T02:40:36;99893.53;;;6.75;76.92
11343;BME280;5726;42.160;24.746;2023-02-03T02:43:28;99902.75;;;6.63;78.24
11343;BME280;5726;42.160;24.746;2023-02-03T02:46:07;99904.06;;;6.60;79.03
11343;BME280;5726;42.160;24.746;2023-02-03T02:48:38;99902.47;;;6.64;79.48
11343;BME280;5726;42.160;24.746;2023-02-03T02:51:08;99913.00;;;6.49;80.57
11343;BME280;5726;42.160;24.746;2023-02-03T02:53:39;99914.63;;;6.50;81.66
11343;BME280;5726;42.160;24.746;2023-02-03T02:56:09;99911.91;;;6.45;81.97
11343;BME280;5726;42.160;24.746;2023-02-03T02:58:38;99910.41;;;6.54;81.80
11343;BME280;5726;42.160;24.746;2023-02-03T03:01:07;99912.22;;;6.49;82.55
11343;BME280;5726;42.160;24.746;2023-02-03T03:03:33;99919.41;;;6.48;81.54
11343;BME280;5726;42.160;24.746;2023-02-03T03:06:13;99916.91;;;6.68;80.57
11343;BME280;5726;42.160;24.746;2023-02-03T03:09:04;99916.31;;;6.61;80.12
11343;BME280;5726;42.160;24.746;2023-02-03T03:11:34;99914.06;;;6.48;80.10
11343;BME280;5726;42.160;24.746;2023-02-03T03:14:04;99916.81;;;6.58;79.85
11343;BME280;5726;42.160;24.746;2023-02-03T03:16:33;99905.25;;;6.48;80.75
11343;BME280;5726;42.160;24.746;2023-02-03T03:19:03;99903.03;;;6.35;81.29
11343;BME280;5726;42.160;24.746;2023-02-03T03:21:33;99911.56;;;6.37;81.04
11343;BME280;5726;42.160;24.746;2023-02-03T03:24:04;99907.59;;;6.39;81.06
11343;BME280;5726;42.160;24.746;2023-02-03T03:26:42;99919.00;;;6.35;81.29
11343;BME280;5726;42.160;24.746;2023-02-03T03:29:15;99920.44;;;6.21;82.35
11343;BME280;5726;42.160;24.746;2023-02-03T03:31:42;99925.25;;;6.24;82.29
11343;BME280;5726;42.160;24.746;2023-02-03T03:34:10;99934.66;;;6.31;81.96
11343;BME280;5726;42.160;24.746;2023-02-03T03:36:49;99941.47;;;6.22;82.37
11343;BME280;5726;42.160;24.746;2023-02-03T03:39:27;99940.84;;;6.37;81.43
11343;BME280;5726;42.160;24.746;2023-02-03T03:47:40;99930.41;;;6.30;81.19
11343;BME280;5726;42.160;24.746;2023-02-03T03:50:11;99929.00;;;6.23;81.01
11343;BME280;5726;42.160;24.746;2023-02-03T03:52:41;99935.50;;;6.11;80.70
11343;BME280;5726;42.160;24.746;2023-02-03T03:55:09;99930.50;;;6.14;80.24
11343;BME280;5726;42.160;24.746;2023-02-03T03:58:08;99937.97;;;6.17;79.97
11343;BME280;5726;42.160;24.746;2023-02-03T04:00:36;99928.78;;;6.29;78.39
11343;BME280;5726;42.160;24.746;2023-02-03T04:03:12;99940.22;;;6.30;78.39
11343;BME280;5726;42.160;24.746;2023-02-03T04:05:38;99952.22;;;6.27;77.70
11343;BME280;5726;42.160;24.746;2023-02-03T04:08:05;99967.69;;;6.09;79.22
11343;BME280;5726;42.160;24.746;2023-02-03T04:10:33;99976.84;;;6.18;78.14
11343;BME280;5726;42.160;24.746;2023-02-03T04:12:59;99983.97;;;6.13;79.36
11343;BME280;5726;42.160;24.746;2023-02-03T04:15:25;99983.03;;;6.23;78.74
11343;BME280;5726;42.160;24.746;2023-02-03T04:17:51;99987.50;;;6.39;77.89
11343;BME280;5726;42.160;24.746;2023-02-03T04:20:17;100000.22;;;6.37;78.00
11343;BME280;5726;42.160;24.746;2023-02-03T04:22:42;99995.81;;;6.48;77.65
11343;BME280;5726;42.160;24.746;2023-02-03T04:25:08;99986.88;;;6.32;78.37
11343;BME280;5726;42.160;24.746;2023-02-03T04:27:34;99996.03;;;6.41;78.55
11343;BME280;5726;42.160;24.746;2023-02-03T04:30:00;99994.41;;;6.40;78.02
11343;BME280;5726;42.160;24.746;2023-02-03T04:32:25;99997.03;;;6.35;78.64
11343;BME280;5726;42.160;24.746;2023-02-03T04:34:51;99982.75;;;6.46;78.26
11343;BME280;5726;42.160;24.746;2023-02-03T04:37:16;99982.75;;;6.46;78.64
11343;BME280;5726;42.160;24.746;2023-02-03T04:39:42;99975.84;;;6.24;79.90
11343;BME280;5726;42.160;24.746;2023-02-03T04:42:07;99962.25;;;6.20;80.70
11343;BME280;5726;42.160;24.746;2023-02-03T04:44:33;99971.88;;;6.26;80.05
11343;BME280;5726;42.160;24.746;2023-02-03T04:46:58;99971.28;;;6.19;80.30
11343;BME280;5726;42.160;24.746;2023-02-03T04:49:24;99971.09;;;6.26;80.00
11343;BME280;5726;42.160;24.746;2023-02-03T04:51:49;99966.94;;;6.14;80.85
11343;BME280;5726;42.160;24.746;2023-02-03T04:54:14;99979.63;;;6.28;79.46
11343;BME280;5726;42.160;24.746;2023-02-03T04:56:40;99977.84;;;6.33;78.30
11343;BME280;5726;42.160;24.746;2023-02-03T04:59:06;99981.63;;;6.16;79.35
11343;BME280;5726;42.160;24.746;2023-02-03T05:01:31;99987.19;;;6.15;79.86
11343;BME280;5726;42.160;24.746;2023-02-03T05:03:57;99986.06;;;6.11;79.99
11343;BME280;5726;42.160;24.746;2023-02-03T05:06:23;99977.72;;;6.23;77.69
11343;BME280;5726;42.160;24.746;2023-02-03T05:08:50;99980.38;;;6.23;77.84
11343;BME280;5726;42.160;24.746;2023-02-03T05:11:15;99978.88;;;6.32;76.30
11343;BME280;5726;42.160;24.746;2023-02-03T05:13:41;99988.22;;;6.14;77.05
11343;BME280;5726;42.160;24.746;2023-02-03T05:16:06;99984.28;;;5.95;78.89
11343;BME280;5726;42.160;24.746;2023-02-03T05:18:31;99987.31;;;6.03;78.64
11343;BME280;5726;42.160;24.746;2023-02-03T05:20:57;99991.38;;;6.11;77.84
11343;BME280;5726;42.160;24.746;2023-02-03T05:23:22;99989.84;;;6.15;77.44
11343;BME280;5726;42.160;24.746;2023-02-03T05:25:48;99989.38;;;5.96;79.02
11343;BME280;5726;42.160;24.746;2023-02-03T05:28:13;99999.72;;;6.14;77.25
11343;BME280;5726;42.160;24.746;2023-02-03T05:30:39;100003.34;;;6.29;76.17
11343;BME280;5726;42.160;24.746;2023-02-03T05:33:04;100004.59;;;6.01;77.85
11343;BME280;5726;42.160;24.746;2023-02-03T05:35:30;100025.19;;;6.10;77.00
11343;BME280;5726;42.160;24.746;2023-02-03T05:37:55;100027.34;;;5.92;78.10
11343;BME280;5726;42.160;24.746;2023-02-03T05:40:21;100015.53;;;5.83;78.63
11343;BME280;5726;42.160;24.746;2023-02-03T05:43:04;100021.09;;;5.81;79.13
11343;BME280;5726;42.160;24.746;2023-02-03T05:45:30;100021.88;;;5.82;79.20
11343;BME280;5726;42.160;24.746;2023-02-03T05:47:56;100010.25;;;5.88;78.14
11343;BME280;5726;42.160;24.746;2023-02-03T05:50:21;100024.56;;;5.82;78.45
11343;BME280;5726;42.160;24.746;2023-02-03T05:52:47;100026.78;;;5.73;78.67
11343;BME280;5726;42.160;24.746;2023-02-03T05:55:13;100020.13;;;5.71;80.97
11343;BME280;5726;42.160;24.746;2023-02-03T05:57:38;100022.41;;;5.46;80.68
11343;BME280;5726;42.160;24.746;2023-02-03T06:00:04;100025.59;;;5.81;79.07
11343;BME280;5726;42.160;24.746;2023-02-03T06:02:31;100019.66;;;5.74;78.81
11343;BME280;5726;42.160;24.746;2023-02-03T06:04:56;100033.44;;;6.30;83.63
11343;BME280;5726;42.160;24.746;2023-02-03T06:07:22;100039.97;;;6.65;80.75
11343;BME280;5726;42.160;24.746;2023-02-03T06:09:47;100048.47;;;7.14;78.12
11343;BME280;5726;42.160;24.746;2023-02-03T06:12:14;100050.22;;;7.30;71.79
11343;BME280;5726;42.160;24.746;2023-02-03T06:14:39;100065.94;;;7.01;75.06
11343;BME280;5726;42.160;24.746;2023-02-03T06:17:04;100068.59;;;7.58;71.09
11343;BME280;5726;42.160;24.746;2023-02-03T06:19:30;100080.94;;;7.69;70.76
11343;BME280;5726;42.160;24.746;2023-02-03T06:21:55;100067.38;;;8.11;67.28
11343;BME280;5726;42.160;24.746;2023-02-03T06:24:21;100073.91;;;8.35;66.14
11343;BME280;5726;42.160;24.746;2023-02-03T06:26:46;100074.03;;;8.14;65.40
11343;BME280;5726;42.160;24.746;2023-02-03T06:29:12;100087.31;;;7.68;64.67
11343;BME280;5726;42.160;24.746;2023-02-03T06:31:37;100094.38;;;7.48;65.45
11343;BME280;5726;42.160;24.746;2023-02-03T06:34:02;100092.25;;;7.50;65.80
11343;BME280;5726;42.160;24.746;2023-02-03T06:36:28;100103.72;;;7.50;65.47
11343;BME280;5726;42.160;24.746;2023-02-03T06:38:53;100100.38;;;7.33;65.84
11343;BME280;5726;42.160;24.746;2023-02-03T06:41:19;100111.44;;;7.20;66.84
11343;BME280;5726;42.160;24.746;2023-02-03T06:43:44;100111.75;;;7.24;65.84
11343;BME280;5726;42.160;24.746;2023-02-03T06:46:10;100117.31;;;6.96;66.83
11343;BME280;5726;42.160;24.746;2023-02-03T06:48:35;100119.75;;;6.98;67.15
11343;BME280;5726;42.160;24.746;2023-02-03T06:51:01;100116.41;;;6.86;67.68
11343;BME280;5726;42.160;24.746;2023-02-03T06:53:26;100119.41;;;6.68;68.96
11343;BME280;5726;42.160;24.746;2023-02-03T06:55:51;100119.16;;;6.48;69.75
11343;BME280;5726;42.160;24.746;2023-02-03T06:58:17;100122.06;;;6.68;69.29
11343;BME280;5726;42.160;24.746;2023-02-03T07:00:42;100128.69;;;6.44;70.05
11343;BME280;5726;42.160;24.746;2023-02-03T07:03:08;100129.00;;;6.69;69.44
11343;BME280;5726;42.160;24.746;2023-02-03T07:05:33;100127.78;;;6.76;68.38
11343;BME280;5726;42.160;24.746;2023-02-03T07:08:00;100128.53;;;6.72;68.77
11343;BME280;5726;42.160;24.746;2023-02-03T07:10:26;100131.53;;;6.80;68.67
11343;BME280;5726;42.160;24.746;2023-02-03T07:12:51;100120.13;;;6.85;68.54
11343;BME280;5726;42.160;24.746;2023-02-03T07:15:17;100124.78;;;6.94;68.41
11343;BME280;5726;42.160;24.746;2023-02-03T07:17:43;100122.97;;;7.00;69.23
11343;BME280;5726;42.160;24.746;2023-02-03T07:20:09;100115.72;;;7.21;68.32
11343;BME280;5726;42.160;24.746;2023-02-03T07:22:34;100110.94;;;7.23;67.31
11343;BME280;5726;42.160;24.746;2023-02-03T07:25:00;100117.59;;;7.21;67.74
11343;BME280;5726;42.160;24.746;2023-02-03T07:27:26;100124.47;;;7.17;67.68
11343;BME280;5726;42.160;24.746;2023-02-03T07:29:52;100116.91;;;7.35;66.87
11343;BME280;5726;42.160;24.746;2023-02-03T07:32:17;100131.88;;;7.10;68.83
11343;BME280;5726;42.160;24.746;2023-02-03T07:34:43;100137.75;;;7.38;68.24
11343;BME280;5726;42.160;24.746;2023-02-03T07:37:08;100136.59;;;7.29;69.09
11343;BME280;5726;42.160;24.746;2023-02-03T07:39:34;100128.72;;;7.39;68.27
11343;BME280;5726;42.160;24.746;2023-02-03T07:41:59;100129.09;;;7.26;69.16
11343;BME280;5726;42.160;24.746;2023-02-03T07:44:24;100129.25;;;7.41;68.67
11343;BME280;5726;42.160;24.746;2023-02-03T07:46:50;100136.75;;;7.44;68.73
11343;BME280;5726;42.160;24.746;2023-02-03T07:49:15;100140.50;;;7.43;68.31
11343;BME280;5726;42.160;24.746;2023-02-03T07:51:40;100142.69;;;7.51;67.05
11343;BME280;5726;42.160;24.746;2023-02-03T07:54:06;100150.78;;;7.61;66.73
11343;BME280;5726;42.160;24.746;2023-02-03T07:56:32;100151.44;;;7.73;66.45
11343;BME280;5726;42.160;24.746;2023-02-03T07:58:58;100154.13;;;7.78;66.47
11343;BME280;5726;42.160;24.746;2023-02-03T08:01:24;100152.19;;;7.68;65.43
11343;BME280;5726;42.160;24.746;2023-02-03T08:03:50;100153.88;;;7.48;66.87
11343;BME280;5726;42.160;24.746;2023-02-03T08:06:15;100137.63;;;7.55;66.53
11343;BME280;5726;42.160;24.746;2023-02-03T08:08:41;100153.59;;;7.76;65.47
11343;BME280;5726;42.160;24.746;2023-02-03T08:11:06;100169.03;;;7.74;65.04
11343;BME280;5726;42.160;24.746;2023-02-03T08:13:32;100156.28;;;7.81;65.30
11343;BME280;5726;42.160;24.746;2023-02-03T08:15:57;100170.69;;;7.80;64.81
11343;BME280;5726;42.160;24.746;2023-02-03T08:18:23;100161.75;;;7.96;64.58
11343;BME280;5726;42.160;24.746;2023-02-03T08:20:48;100167.00;;;7.86;64.74
11343;BME280;5726;42.160;24.746;2023-02-03T08:23:14;100145.19;;;7.94;64.60
11343;BME280;5726;42.160;24.746;2023-02-03T08:25:39;100162.03;;;7.99;64.62
11343;BME280;5726;42.160;24.746;2023-02-03T08:28:05;100152.09;;;8.26;64.09
11343;BME280;5726;42.160;24.746;2023-02-03T08:30:30;100164.94;;;8.29;60.87
11343;BME280;5726;42.160;24.746;2023-02-03T08:32:56;100175.84;;;8.17;62.17
11343;BME280;5726;42.160;24.746;2023-02-03T08:35:22;100156.63;;;8.20;61.86
11343;BME280;5726;42.160;24.746;2023-02-03T08:37:47;100162.31;;;8.34;61.65
11343;BME280;5726;42.160;24.746;2023-02-03T08:40:14;100156.25;;;8.48;59.75
11343;BME280;5726;42.160;24.746;2023-02-03T08:42:40;100162.78;;;8.72;58.66
11343;BME280;5726;42.160;24.746;2023-02-03T08:45:06;100164.22;;;8.94;57.79
11343;BME280;5726;42.160;24.746;2023-02-03T08:47:32;100172.50;;;8.93;57.04
11343;BME280;5726;42.160;24.746;2023-02-03T08:49:58;100163.50;;;9.18;56.23
11343;BME280;5726;42.160;24.746;2023-02-03T08:52:23;100170.75;;;9.33;54.60
11343;BME280;5726;42.160;24.746;2023-02-03T08:54:49;100178.06;;;9.57;53.45
11343;BME280;5726;42.160;24.746;2023-02-03T08:57:14;100169.78;;;9.98;52.11
11343;BME280;5726;42.160;24.746;2023-02-03T08:59:41;100179.69;;;10.17;51.32
11343;BME280;5726;42.160;24.746;2023-02-03T09:02:12;100158.78;;;10.14;51.62
11343;BME280;5726;42.160;24.746;2023-02-03T09:04:38;100173.56;;;9.97;51.72
11343;BME280;5726;42.160;24.746;2023-02-03T09:07:04;100181.31;;;9.99;50.72
11343;BME280;5726;42.160;24.746;2023-02-03T09:09:30;100180.75;;;10.21;50.07
11343;BME280;5726;42.160;24.746;2023-02-03T09:11:55;100172.94;;;10.40;49.08
11343;BME280;5726;42.160;24.746;2023-02-03T09:14:30;100169.78;;;10.08;49.36
11343;BME280;5726;42.160;24.746;2023-02-03T09:16:56;100171.66;;;9.93;49.88
11343;BME280;5726;42.160;24.746;2023-02-03T09:19:21;100172.69;;;9.77;50.28
11343;BME280;5726;42.160;24.746;2023-02-03T09:21:47;100178.06;;;9.92;49.67
11343;BME280;5726;42.160;24.746;2023-02-03T09:24:16;100177.00;;;10.22;48.29
11343;BME280;5726;42.160;24.746;2023-02-03T09:26:42;100182.06;;;10.34;48.48
11343;BME280;5726;42.160;24.746;2023-02-03T09:29:08;100182.84;;;10.54;48.08
11343;BME280;5726;42.160;24.746;2023-02-03T09:31:33;100183.13;;;10.52;47.94
11343;BME280;5726;42.160;24.746;2023-02-03T09:33:59;100184.44;;;10.60;47.80
11343;BME280;5726;42.160;24.746;2023-02-03T09:36:24;100168.53;;;10.83;46.27
11343;BME280;5726;42.160;24.746;2023-02-03T09:38:50;100166.66;;;10.79;46.70
11343;BME280;5726;42.160;24.746;2023-02-03T09:44:21;100160.34;;;10.50;47.11
11343;BME280;5726;42.160;24.746;2023-02-03T09:46:51;100154.44;;;10.53;46.47
11343;BME280;5726;42.160;24.746;2023-02-03T09:49:31;100149.59;;;10.55;46.52
11343;BME280;5726;42.160;24.746;2023-02-03T09:52:17;100141.72;;;10.88;45.84
11343;BME280;5726;42.160;24.746;2023-02-03T09:54:53;100132.88;;;10.83;45.18
11343;BME280;5726;42.160;24.746;2023-02-03T09:57:26;100151.75;;;10.53;45.45
11343;BME280;5726;42.160;24.746;2023-02-03T09:59:54;100154.41;;;10.58;45.76
11343;BME280;5726;42.160;24.746;2023-02-03T10:10:37;100173.09;;;10.83;45.41
11343;BME280;5726;42.160;24.746;2023-02-03T10:13:26;100162.69;;;10.76;44.60
11343;BME280;5726;42.160;24.746;2023-02-03T10:16:24;100146.47;;;11.06;45.45
11343;BME280;5726;42.160;24.746;2023-02-03T10:18:54;100168.59;;;11.26;46.30
11343;BME280;5726;42.160;24.746;2023-02-03T10:21:32;100153.03;;;11.28;44.17
11343;BME280;5726;42.160;24.746;2023-02-03T10:23:59;100163.94;;;10.94;43.39
11343;BME280;5726;42.160;24.746;2023-02-03T10:26:26;100164.41;;;11.10;43.32
11343;BME280;5726;42.160;24.746;2023-02-03T10:28:55;100165.59;;;10.80;44.03
11343;BME280;5726;42.160;24.746;2023-02-03T10:31:26;100163.22;;;10.73;43.91
11343;BME280;5726;42.160;24.746;2023-02-03T10:34:03;100143.75;;;10.28;44.70
11343;BME280;5726;42.160;24.746;2023-02-03T10:36:55;100146.44;;;10.33;45.54
11343;BME280;5726;42.160;24.746;2023-02-03T10:41:59;100121.69;;;10.61;45.54
11343;BME280;5726;42.160;24.746;2023-02-03T10:44:41;100126.16;;;10.80;45.04
11343;BME280;5726;42.160;24.746;2023-02-03T10:49:41;100125.38;;;10.80;44.24
11343;BME280;5726;42.160;24.746;2023-02-03T10:52:30;100120.59;;;10.67;44.75
11343;BME280;5726;42.160;24.746;2023-02-03T10:54:56;100125.41;;;10.75;45.01
11343;BME280;5726;42.160;24.746;2023-02-03T10:57:24;100123.72;;;10.89;44.13
11343;BME280;5726;42.160;24.746;2023-02-03T10:59:50;100123.69;;;10.98;43.42
11343;BME280;5726;42.160;24.746;2023-02-03T11:02:29;100118.66;;;10.82;44.42
11343;BME280;5726;42.160;24.746;2023-02-03T11:07:36;100119.50;;;10.78;44.51
11343;BME280;5726;42.160;24.746;2023-02-03T11:10:02;100127.31;;;10.64;44.89
11343;BME280;5726;42.160;24.746;2023-02-03T11:12:27;100128.22;;;10.98;44.05
11343;BME280;5726;42.160;24.746;2023-02-03T11:14:53;100123.88;;;11.12;43.41
11343;BME280;5726;42.160;24.746;2023-02-03T11:17:23;100120.56;;;11.25;43.55
11343;BME280;5726;42.160;24.746;2023-02-03T11:19:57;100108.13;;;10.96;44.18
11343;BME280;5726;42.160;24.746;2023-02-03T11:22:31;100113.78;;;10.89;44.81
11343;BME280;5726;42.160;24.746;2023-02-03T11:25:01;100108.13;;;10.96;44.51
11343;BME280;5726;42.160;24.746;2023-02-03T11:27:31;100114.63;;;11.28;44.29
11343;BME280;5726;42.160;24.746;2023-02-03T11:30:13;100126.28;;;11.13;44.24
11343;BME280;5726;42.160;24.746;2023-02-03T11:32:41;100115.78;;;11.17;43.83
11343;BME280;5726;42.160;24.746;2023-02-03T11:35:25;100114.59;;;10.85;43.68
11343;BME280;5726;42.160;24.746;2023-02-03T11:37:51;100114.06;;;10.93;44.09
11343;BME280;5726;42.160;24.746;2023-02-03T11:43:13;100095.00;;;11.37;44.51
11343;BME280;5726;42.160;24.746;2023-02-03T11:45:51;100099.50;;;11.03;42.52
11343;BME280;5726;42.160;24.746;2023-02-03T11:53:43;100083.81;;;11.20;41.71
11343;BME280;5726;42.160;24.746;2023-02-03T11:56:48;100075.94;;;11.39;40.57
11343;BME280;5726;42.160;24.746;2023-02-03T11:59:35;100076.91;;;11.09;41.24
11343;BME280;5726;42.160;24.746;2023-02-03T12:13:00;100068.09;;;11.42;39.25
11343;BME280;5726;42.160;24.746;2023-02-03T12:21:48;100052.06;;;10.94;41.79
11343;BME280;5726;42.160;24.746;2023-02-03T12:29:38;100042.81;;;10.72;41.65
11343;BME280;5726;42.160;24.746;2023-02-03T12:37:46;100045.31;;;10.48;41.13
11343;BME280;5726;42.160;24.746;2023-02-03T12:42:52;100037.53;;;10.57;41.21
11343;BME280;5726;42.160;24.746;2023-02-03T12:45:28;100035.44;;;10.44;41.49
11343;BME280;5726;42.160;24.746;2023-02-03T12:48:06;100034.31;;;10.50;40.47
11343;BME280;5726;42.160;24.746;2023-02-03T12:50:38;100039.78;;;10.25;41.29
11343;BME280;5726;42.160;24.746;2023-02-03T12:53:30;100031.72;;;10.35;41.66
11343;BME280;5726;42.160;24.746;2023-02-03T12:56:08;100036.31;;;10.25;42.58
11343;BME280;5726;42.160;24.746;2023-02-03T12:58:40;100031.63;;;10.55;42.13
11343;BME280;5726;42.160;24.746;2023-02-03T13:03:41;100024.28;;;10.17;42.11
11343;BME280;5726;42.160;24.746;2023-02-03T13:17:06;100012.97;;;10.30;42.83
11343;BME280;5726;42.160;24.746;2023-02-03T13:19:42;100006.75;;;10.40;42.85
11343;BME280;5726;42.160;24.746;2023-02-03T13:22:11;100009.00;;;10.71;42.26
11343;BME280;5726;42.160;24.746;2023-02-03T13:24:40;100008.47;;;10.74;41.91
11343;BME280;5726;42.160;24.746;2023-02-03T13:32:51;100011.59;;;10.86;41.80
11343;BME280;5726;42.160;24.746;2023-02-03T13:38:29;100005.22;;;10.77;39.34
11343;BME280;5726;42.160;24.746;2023-02-03T13:43:45;100000.22;;;11.03;37.95
11343;BME280;5726;42.160;24.746;2023-02-03T13:46:28;99995.56;;;10.81;37.51
11343;BME280;5726;42.160;24.746;2023-02-03T13:48:57;99998.41;;;10.46;38.37
11343;BME280;5726;42.160;24.746;2023-02-03T13:51:26;99994.03;;;10.65;38.27
11343;BME280;5726;42.160;24.746;2023-02-03T13:54:16;99994.00;;;10.75;38.14
11343;BME280;5726;42.160;24.746;2023-02-03T13:56:53;99982.25;;;10.61;38.72
11343;BME280;5726;42.160;24.746;2023-02-03T14:10:20;99973.94;;;10.62;36.67
11343;BME280;5726;42.160;24.746;2023-02-03T14:15:35;99973.75;;;10.49;36.32
11343;BME280;5726;42.160;24.746;2023-02-03T14:18:29;99977.25;;;10.88;36.19
11343;BME280;5726;42.160;24.746;2023-02-03T14:20:53;99985.13;;;10.74;37.59
11343;BME280;5726;42.160;24.746;2023-02-03T14:23:34;99984.91;;;10.66;37.71
11343;BME280;5726;42.160;24.746;2023-02-03T14:26:02;99980.94;;;10.58;37.80
11343;BME280;5726;42.160;24.746;2023-02-03T14:28:38;99971.16;;;10.29;37.64
11343;BME280;5726;42.160;24.746;2023-02-03T14:38:53;99987.28;;;10.24;38.71
11343;BME280;5726;42.160;24.746;2023-02-03T14:49:43;99983.06;;;10.13;37.98
11343;BME280;5726;42.160;24.746;2023-02-03T14:57:43;99993.25;;;10.06;38.35
11343;BME280;5726;42.160;24.746;2023-02-03T15:03:14;99994.38;;;9.96;37.19
11343;BME280;5726;42.160;24.746;2023-02-03T15:05:45;99988.50;;;9.69;37.53
11343;BME280;5726;42.160;24.746;2023-02-03T15:08:34;99985.28;;;9.67;36.95
11343;BME280;5726;42.160;24.746;2023-02-03T15:11:23;99998.94;;;9.60;37.31
11343;BME280;5726;42.160;24.746;2023-02-03T15:13:50;99996.78;;;9.62;37.74
11343;BME280;5726;42.160;24.746;2023-02-03T15:16:21;99990.63;;;9.67;38.25
11343;BME280;5726;42.160;24.746;2023-02-03T15:18:58;99996.53;;;9.59;37.74
11343;BME280;5726;42.160;24.746;2023-02-03T15:21:24;100000.00;;;9.69;37.44
11343;BME280;5726;42.160;24.746;2023-02-03T15:23:50;99992.78;;;9.55;38.48
11343;BME280;5726;42.160;24.746;2023-02-03T15:26:23;100005.94;;;9.47;39.05
11343;BME280;5726;42.160;24.746;2023-02-03T15:34:08;100001.91;;;9.34;39.94
11343;BME280;5726;42.160;24.746;2023-02-03T15:36:46;99998.97;;;9.36;40.22
11343;BME280;5726;42.160;24.746;2023-02-03T15:41:50;99993.34;;;9.37;40.59
11343;BME280;5726;42.160;24.746;2023-02-03T15:44:33;99999.50;;;9.43;40.68
11343;BME280;5726;42.160;24.746;2023-02-03T15:47:01;99994.97;;;9.04;41.67